Whitehead, Alabama
Current Conditions -  °F | °C
As of 3:53 AM on Thursday 18 Dec 2014 (Local Time) from KMSL Reporting Station
Overcast Overcast  
Wind Chill: 36°   Ceiling: 8000
Heat Index: 40°   Visibility: 10mi
Dew Point: 30°   Wind: 6mph
Humidity: 68%   Direction: 40°NE
Pressure: 30.25"   Gusts: NA
Location:  34.8568°N, 87.316°W
Report Text: KMSL 180953Z AUTO 04005KT 10SM OVC080 04/M01 A3025 RMK AO2 SLP246 T00441011
Loading
Personal Weather Stations






























Interactive Weather Map New forecast layout! Learn more

10-Day Weather Forecast

Advertisements
Track Severe Weather on mobile